Port Simpson, Canada
Current Conditions -  °F | °C
As of 2:00 AM on Wednesday 22 Oct 2014 (Local Time) from CYPR Reporting Station
Clear Clear  
Wind Chill: 42°   Ceiling: Unl
Heat Index: 46°   Visibility: 9mi
Dew Point: 39°   Wind: 9mph
Humidity: 76%   Direction: 110°ESE
Pressure: 29.32"   Gusts: NA
Location:  54.55°N, 130.42°W
Report Text: CYPR 220900Z AUTO 11008KT 9SM CLR 08/04 A2932 RMK SLP930
Loading
Personal Weather Stations






























Interactive Weather Map
Tropical Storm Tracking
New forecast layout! Learn more

10-Day Weather Forecast

Advertisements
Track Severe Weather on mobile